Time;durP1;ratioP1;P1;durP2;ratioP2;P2;SDS_P1;SDS_P2;PMS_P1;PMS_P2;Temp;Humidity;BMP_temperature;BMP_pressure;BME280_temperature;BME280_humidity;BME280_pressure;Samples;Min_cycle;Max_cycle;Signal;HPM_P1;HPM_P2
2022/07/19 00:01:26;;;;;;;3.47;2.38;;;28.40;77.10;;;;;;5064307;28;20277;-44
2022/07/19 00:03:56;;;;;;;2.50;2.08;;;28.40;77.30;;;;;;5064205;28;20294;-46
2022/07/19 00:06:23;;;;;;;9.05;3.72;;;28.30;77.40;;;;;;5042782;28;20226;-45
2022/07/19 00:08:53;;;;;;;5.88;2.17;;;28.30;77.40;;;;;;5039332;28;20204;-46
2022/07/19 00:11:20;;;;;;;2.35;2.15;;;28.20;77.30;;;;;;5028621;28;20213;-44
2022/07/19 00:13:48;;;;;;;9.45;2.22;;;28.20;77.40;;;;;;5028268;28;20213;-46
2022/07/19 00:16:15;;;;;;;4.35;2.28;;;28.20;77.50;;;;;;5028704;28;20210;-43
2022/07/19 00:18:43;;;;;;;3.65;2.40;;;28.10;77.50;;;;;;5028157;28;20212;-43
2022/07/19 00:21:10;;;;;;;10.00;2.42;;;28.10;77.60;;;;;;5028633;28;20690;-42
2022/07/19 00:23:40;;;;;;;2.20;2.00;;;28.00;77.50;;;;;;5028941;28;20212;-43
2022/07/19 00:26:07;;;;;;;2.95;2.30;;;28.00;77.80;;;;;;5039211;28;20218;-48
2022/07/19 00:28:35;;;;;;;2.65;2.00;;;27.90;77.70;;;;;;5039975;28;20233;-50
2022/07/19 00:31:04;;;;;;;5.15;2.45;;;27.90;77.70;;;;;;5043915;28;20207;-49
2022/07/19 00:33:31;;;;;;;4.65;2.42;;;27.80;77.80;;;;;;5045296;28;20321;-49
2022/07/19 00:35:59;;;;;;;2.90;2.10;;;27.80;77.90;;;;;;5028941;28;20197;-49
2022/07/19 00:38:28;;;;;;;2.35;1.90;;;27.70;77.80;;;;;;5047837;28;20336;-50
2022/07/19 00:40:58;;;;;;;2.53;2.30;;;27.70;78.00;;;;;;5047184;28;20284;-49
2022/07/19 00:43:28;;;;;;;2.22;2.03;;;27.60;77.80;;;;;;5047461;28;20266;-49
2022/07/19 00:45:57;;;;;;;3.55;2.15;;;27.60;78.00;;;;;;5048430;28;20196;-50
2022/07/19 00:48:25;;;;;;;3.88;2.30;;;27.60;78.20;;;;;;5047660;28;20218;-49
2022/07/19 00:50:52;;;;;;;4.80;2.40;;;27.50;78.20;;;;;;5047079;28;20273;-50
2022/07/19 00:53:23;;;;;;;5.53;2.30;;;27.50;79.00;;;;;;5026309;28;20254;-51
2022/07/19 00:55:54;;;;;;;2.58;2.20;;;27.50;78.50;;;;;;5028845;28;20253;-52
2022/07/19 00:58:23;;;;;;;2.78;2.20;;;27.40;78.70;;;;;;5027254;28;20291;-51
2022/07/19 01:00:53;;;;;;;4.60;2.58;;;27.30;78.60;;;;;;5035501;28;20215;-50
2022/07/19 01:03:24;;;;;;;5.43;2.53;;;27.30;79.50;;;;;;5030926;28;20263;-51
2022/07/19 01:05:53;;;;;;;3.35;2.17;;;27.30;78.80;;;;;;5039870;28;20263;-50
2022/07/19 01:08:23;;;;;;;5.20;2.30;;;27.20;78.80;;;;;;5027509;28;20209;-51
2022/07/19 01:10:51;;;;;;;4.18;2.38;;;27.20;78.90;;;;;;5030291;28;20291;-51
2022/07/19 01:13:18;;;;;;;3.60;2.35;;;27.20;79.00;;;;;;5032767;28;20208;-51
2022/07/19 01:15:46;;;;;;;3.55;2.33;;;27.10;79.10;;;;;;5033333;28;20212;-50
2022/07/19 01:18:13;;;;;;;4.70;2.35;;;27.10;79.30;;;;;;5031113;28;20254;-51
2022/07/19 01:20:40;;;;;;;3.45;2.70;;;27.00;79.30;;;;;;5031769;28;20471;-52
2022/07/19 01:23:10;;;;;;;3.22;2.00;;;27.00;79.40;;;;;;5034621;28;20220;-51
2022/07/19 01:25:40;;;;;;;3.55;2.10;;;27.00;79.60;;;;;;5034128;28;20310;-50
2022/07/19 01:28:08;;;;;;;2.33;2.13;;;26.90;79.60;;;;;;5037072;28;20193;-50
2022/07/19 01:30:35;;;;;;;2.65;2.25;;;26.90;79.60;;;;;;5040166;28;20212;-50
2022/07/19 01:33:04;;;;;;;4.18;2.30;;;26.90;79.80;;;;;;5029852;28;20274;-50
2022/07/19 01:35:31;;;;;;;3.00;2.30;;;26.80;79.90;;;;;;5043853;28;20286;-44
2022/07/19 01:37:58;;;;;;;4.28;2.35;;;26.80;80.00;;;;;;5031540;28;20885;-43
2022/07/19 01:40:26;;;;;;;5.72;2.47;;;26.80;80.10;;;;;;5031466;28;20638;-51
2022/07/19 01:42:53;;;;;;;3.58;2.40;;;26.70;80.20;;;;;;5031351;28;20225;-50
2022/07/19 01:45:21;;;;;;;4.53;2.47;;;26.70;80.20;;;;;;5031645;28;20293;-50
2022/07/19 01:47:48;;;;;;;4.05;2.25;;;26.70;80.20;;;;;;5031603;28;20208;-50
2022/07/19 01:50:17;;;;;;;4.22;2.38;;;26.60;80.20;;;;;;5034969;28;20216;-50
2022/07/19 01:52:45;;;;;;;4.03;2.25;;;26.60;80.30;;;;;;5049935;28;20216;-51
2022/07/19 01:55:19;;;;;;;3.63;2.20;;;26.60;80.30;;;;;;5050724;28;20215;-50
2022/07/19 01:57:47;;;;;;;5.25;2.25;;;26.60;81.10;;;;;;5051099;28;20212;-49
2022/07/19 02:00:19;;;;;;;4.63;2.55;;;26.60;80.50;;;;;;5058624;28;20204;-50
2022/07/19 02:02:49;;;;;;;3.78;2.40;;;26.50;80.50;;;;;;5070384;28;20227;-50
2022/07/19 02:05:16;;;;;;;4.70;2.28;;;26.50;80.50;;;;;;5056408;28;20730;-50
2022/07/19 02:07:50;;;;;;;4.20;2.78;;;26.40;80.40;;;;;;5041373;28;20295;-50
2022/07/19 02:10:17;;;;;;;3.30;2.40;;;26.40;80.30;;;;;;5030503;28;20631;-50
2022/07/19 02:12:49;;;;;;;5.05;2.67;;;26.40;80.40;;;;;;5031356;28;20755;-50
2022/07/19 02:15:16;;;;;;;3.33;2.15;;;26.30;80.30;;;;;;5029403;28;20271;-50
2022/07/19 02:17:48;;;;;;;7.20;2.45;;;26.30;80.40;;;;;;5030315;28;20201;-51
2022/07/19 02:20:15;;;;;;;6.38;2.38;;;26.30;80.40;;;;;;5030391;28;20646;-50
2022/07/19 02:22:43;;;;;;;7.40;2.42;;;26.20;80.50;;;;;;5047149;28;20216;-44
2022/07/19 02:25:10;;;;;;;4.20;2.65;;;26.20;80.50;;;;;;5038935;28;20550;-44
2022/07/19 02:27:37;;;;;;;4.60;2.30;;;26.10;80.50;;;;;;5029284;28;20620;-44
2022/07/19 02:30:11;;;;;;;3.33;2.25;;;26.10;80.50;;;;;;5030623;28;20201;-44
2022/07/19 02:32:40;;;;;;;4.80;2.38;;;26.10;80.60;;;;;;5028875;28;20219;-50
2022/07/19 02:35:10;;;;;;;6.10;2.42;;;26.00;80.60;;;;;;5030623;28;20206;-51
2022/07/19 02:37:40;;;;;;;3.95;2.20;;;26.00;80.70;;;;;;5029052;28;20193;-50
2022/07/19 02:40:11;;;;;;;6.38;2.60;;;26.00;80.70;;;;;;5034473;28;20208;-50
2022/07/19 02:42:42;;;;;;;5.32;2.30;;;26.00;80.80;;;;;;5047202;28;20227;-51
2022/07/19 02:45:14;;;;;;;3.53;2.25;;;26.00;81.00;;;;;;5049053;28;20201;-44
2022/07/19 02:47:44;;;;;;;3.22;2.22;;;26.00;80.90;;;;;;5050172;28;20250;-45
2022/07/19 02:50:11;;;;;;;3.45;2.50;;;25.90;81.10;;;;;;5049927;28;20262;-42
2022/07/19 02:52:39;;;;;;;4.00;2.95;;;25.90;81.80;;;;;;5050021;28;20192;-43
2022/07/19 02:55:06;;;;;;;2.70;2.33;;;25.90;81.10;;;;;;5032659;28;20621;-45
2022/07/19 02:57:37;;;;;;;4.00;2.50;;;25.80;81.20;;;;;;5030146;28;20236;-44
2022/07/19 03:00:09;;;;;;;5.25;2.60;;;25.80;81.10;;;;;;5054374;28;20235;-43
2022/07/19 03:02:39;;;;;;;3.60;2.63;;;25.80;81.30;;;;;;5069294;28;20360;-43
2022/07/19 03:05:09;;;;;;;2.72;2.30;;;25.70;81.30;;;;;;5070107;28;20666;-43
2022/07/19 03:07:36;;;;;;;2.90;2.60;;;25.70;81.30;;;;;;5069718;28;20196;-42
2022/07/19 03:10:05;;;;;;;5.05;2.72;;;25.70;81.40;;;;;;5060752;28;20209;-43
2022/07/19 03:12:32;;;;;;;3.97;2.58;;;25.60;81.50;;;;;;5037093;28;20204;-43
2022/07/19 03:15:00;;;;;;;2.85;2.22;;;25.60;81.50;;;;;;5046160;28;20204;-43
2022/07/19 03:17:27;;;;;;;2.60;2.33;;;25.60;81.70;;;;;;5029289;28;20211;-43
2022/07/19 03:19:54;;;;;;;2.78;2.20;;;25.50;81.70;;;;;;5029695;28;20286;-43
2022/07/19 03:22:21;;;;;;;4.13;2.65;;;25.50;81.90;;;;;;5029747;28;20622;-43
2022/07/19 03:24:51;;;;;;;3.63;2.20;;;25.50;82.00;;;;;;5045419;28;20586;-42
2022/07/19 03:27:23;;;;;;;3.78;2.55;;;25.40;82.10;;;;;;5048181;28;20247;-43
2022/07/19 03:29:50;;;;;;;3.92;2.58;;;25.40;82.00;;;;;;5038118;28;20356;-43
2022/07/19 03:32:22;;;;;;;6.13;2.13;;;25.30;82.20;;;;;;5032417;28;20694;-44
2022/07/19 03:34:49;;;;;;;2.78;2.50;;;25.30;82.10;;;;;;5049130;28;20308;-42
2022/07/19 03:37:16;;;;;;;3.72;2.13;;;25.30;82.30;;;;;;5048947;28;20295;-43
2022/07/19 03:39:46;;;;;;;3.17;2.47;;;25.30;82.30;;;;;;5048840;28;20257;-42
2022/07/19 03:42:13;;;;;;;6.63;3.00;;;25.30;82.40;;;;;;5048704;28;20645;-42
2022/07/19 03:44:41;;;;;;;6.13;2.63;;;25.20;82.20;;;;;;5049285;28;20200;-44
2022/07/19 03:47:08;;;;;;;4.03;2.85;;;25.20;82.20;;;;;;5045409;28;20244;-42
2022/07/19 03:49:35;;;;;;;5.28;2.72;;;25.10;82.10;;;;;;5035716;28;20616;-42
2022/07/19 03:52:03;;;;;;;4.80;2.38;;;25.10;82.10;;;;;;5049048;28;20215;-42
2022/07/19 03:54:35;;;;;;;5.20;2.58;;;25.10;82.10;;;;;;5035730;28;20197;-49
2022/07/19 03:57:04;;;;;;;4.80;3.15;;;25.00;82.10;;;;;;5029010;28;20205;-49
2022/07/19 03:59:32;;;;;;;4.88;2.67;;;25.00;82.00;;;;;;5031383;28;20668;-49
2022/07/19 04:02:02;;;;;;;3.53;2.40;;;25.00;82.00;;;;;;5068181;28;20674;-50
2022/07/19 04:04:29;;;;;;;3.80;2.58;;;25.00;82.00;;;;;;5037870;28;20209;-50
2022/07/19 04:06:57;;;;;;;3.83;2.65;;;24.90;81.90;;;;;;5031981;28;20259;-50
2022/07/19 04:09:26;;;;;;;5.55;2.40;;;24.90;81.90;;;;;;5028129;28;20770;-50
2022/07/19 04:11:56;;;;;;;3.28;2.30;;;24.80;81.80;;;;;;5028858;28;20205;-42
2022/07/19 04:14:26;;;;;;;7.60;3.60;;;24.80;81.90;;;;;;5028633;28;20209;-42
2022/07/19 04:16:53;;;;;;;3.33;2.40;;;24.80;81.80;;;;;;5028697;28;20197;-41
2022/07/19 04:19:23;;;;;;;4.65;2.38;;;24.80;82.00;;;;;;5028488;28;20220;-42
2022/07/19 04:21:55;;;;;;;9.80;2.90;;;24.70;81.90;;;;;;5044844;28;20210;-42
2022/07/19 04:24:24;;;;;;;5.15;2.45;;;24.70;82.00;;;;;;5034346;28;20607;-42
2022/07/19 04:26:56;;;;;;;6.57;2.70;;;24.70;82.00;;;;;;5048251;28;20219;-42
2022/07/19 04:29:23;;;;;;;4.75;3.10;;;24.70;81.90;;;;;;5048356;28;20204;-42
2022/07/19 04:31:55;;;;;;;5.85;3.05;;;24.70;82.10;;;;;;5048469;28;20606;-42
2022/07/19 04:34:22;;;;;;;4.95;2.85;;;24.70;82.10;;;;;;5047973;28;20232;-42
2022/07/19 04:36:49;;;;;;;4.55;2.53;;;24.70;82.00;;;;;;5046637;28;20690;-43
2022/07/19 04:39:19;;;;;;;3.67;2.63;;;24.70;82.00;;;;;;5026605;28;20201;-43
2022/07/19 04:41:49;;;;;;;6.30;2.60;;;24.70;82.00;;;;;;5044635;28;20212;-43
2022/07/19 04:44:19;;;;;;;5.45;2.65;;;24.70;82.10;;;;;;5045861;28;20220;-42
2022/07/19 04:46:48;;;;;;;4.25;2.53;;;24.70;82.00;;;;;;5042951;28;20216;-43
2022/07/19 04:49:16;;;;;;;4.43;2.67;;;24.70;82.10;;;;;;5027884;28;20201;-43
2022/07/19 04:51:45;;;;;;;7.03;2.33;;;24.60;82.10;;;;;;5028358;28;20197;-42
2022/07/19 04:54:15;;;;;;;8.20;2.47;;;24.60;82.10;;;;;;5028331;28;20638;-44
2022/07/19 04:56:42;;;;;;;4.78;2.65;;;24.60;82.70;;;;;;5031927;28;20306;-44
2022/07/19 04:59:10;;;;;;;3.88;2.40;;;24.70;82.10;;;;;;5027590;28;20244;-44
2022/07/19 05:01:39;;;;;;;3.13;2.17;;;24.70;82.10;;;;;;5065985;28;20994;-43
2022/07/19 05:04:09;;;;;;;4.97;2.85;;;24.70;82.20;;;;;;5066497;28;20227;-42
2022/07/19 05:06:36;;;;;;;5.88;2.58;;;24.70;82.30;;;;;;5047938;28;20280;-43
2022/07/19 05:09:06;;;;;;;5.20;2.60;;;24.70;82.20;;;;;;5027566;28;20302;-43
2022/07/19 05:11:33;;;;;;;5.43;2.78;;;24.70;82.20;;;;;;5033982;28;20218;-44
2022/07/19 05:14:01;;;;;;;4.38;2.80;;;24.70;82.30;;;;;;5045544;28;20214;-43
2022/07/19 05:16:30;;;;;;;4.65;2.50;;;24.70;82.30;;;;;;5028004;28;20300;-43
2022/07/19 05:19:00;;;;;;;4.38;2.58;;;24.70;82.30;;;;;;5027586;28;20686;-43
2022/07/19 05:21:27;;;;;;;4.55;2.60;;;24.70;82.40;;;;;;5028033;28;20315;-43
2022/07/19 05:23:54;;;;;;;3.95;2.40;;;24.70;82.50;;;;;;5037101;28;20716;-43
2022/07/19 05:26:21;;;;;;;3.72;2.40;;;24.70;82.50;;;;;;5046388;28;20202;-43
2022/07/19 05:28:49;;;;;;;4.55;2.53;;;24.80;82.70;;;;;;5038115;28;20272;-43
2022/07/19 05:31:16;;;;;;;3.88;2.63;;;24.80;82.70;;;;;;5031532;28;20719;-43
2022/07/19 05:33:44;;;;;;;4.10;2.90;;;24.80;82.80;;;;;;5045875;28;20223;-43
2022/07/19 05:36:11;;;;;;;4.93;2.63;;;24.80;82.80;;;;;;5048158;28;20204;-49
2022/07/19 05:38:41;;;;;;;2.83;2.40;;;24.90;82.90;;;;;;5045662;28;20262;-49
2022/07/19 05:41:10;;;;;;;4.07;2.42;;;24.90;82.90;;;;;;5047776;28;20278;-49
2022/07/19 05:43:42;;;;;;;7.60;2.63;;;24.90;83.00;;;;;;5047409;28;20220;-49
2022/07/19 05:46:09;;;;;;;6.93;2.58;;;25.00;83.10;;;;;;5047077;28;20246;-49
2022/07/19 05:48:37;;;;;;;5.45;2.72;;;25.00;83.00;;;;;;5046179;28;20204;-49
2022/07/19 05:51:04;;;;;;;8.10;2.70;;;25.10;83.10;;;;;;5047494;28;20235;-49
2022/07/19 05:53:35;;;;;;;2.53;2.30;;;25.10;83.10;;;;;;5046785;28;20292;-49
2022/07/19 05:56:03;;;;;;;6.32;3.03;;;25.10;83.10;;;;;;5011890;28;20243;-49
2022/07/19 05:58:30;;;;;;;6.18;3.00;;;25.20;83.20;;;;;;5030998;28;20258;-50
2022/07/19 06:01:22;;;;;;;7.28;2.60;;;25.20;83.20;;;;;;5056799;28;20203;-49
2022/07/19 06:03:58;;;;;;;6.82;2.72;;;25.30;83.30;;;;;;5033234;28;20675;-49
2022/07/19 06:06:30;;;;;;;6.90;3.03;;;25.30;83.30;;;;;;5041789;28;20201;-49
2022/07/19 06:08:59;;;;;;;9.05;2.83;;;25.30;83.30;;;;;;5039263;28;20192;-51
2022/07/19 06:11:27;;;;;;;9.82;2.83;;;25.30;83.30;;;;;;5034173;28;20213;-49
2022/07/19 06:13:55;;;;;;;4.20;2.58;;;25.40;83.30;;;;;;5029430;28;20300;-49
2022/07/19 06:16:23;;;;;;;7.25;2.97;;;25.40;83.30;;;;;;5030663;28;20209;-49
2022/07/19 06:18:51;;;;;;;5.55;3.28;;;25.50;83.40;;;;;;5029627;28;20211;-49
2022/07/19 06:21:19;;;;;;;31.60;7.60;;;25.50;83.50;;;;;;5031033;28;20292;-49
2022/07/19 06:23:47;;;;;;;14.98;4.30;;;25.60;83.50;;;;;;5046502;28;20236;-49
2022/07/19 06:26:17;;;;;;;6.57;3.13;;;25.60;83.50;;;;;;5037786;28;20193;-41
2022/07/19 06:28:45;;;;;;;6.82;3.05;;;25.70;83.70;;;;;;5012710;28;20311;-42
2022/07/19 06:31:13;;;;;;;6.32;2.78;;;25.70;83.60;;;;;;5029149;28;20287;-43
2022/07/19 06:33:42;;;;;;;6.10;2.65;;;25.80;83.80;;;;;;5030326;28;20217;-43
2022/07/19 06:36:10;;;;;;;8.18;2.83;;;25.80;83.80;;;;;;5030747;28;20205;-43
2022/07/19 06:38:41;;;;;;;8.38;2.80;;;25.90;83.80;;;;;;5028529;28;20300;-43
2022/07/19 06:41:09;;;;;;;7.20;2.40;;;26.00;83.90;;;;;;5030315;28;20221;-43
2022/07/19 06:43:37;;;;;;;7.03;2.80;;;26.00;83.80;;;;;;5030059;28;20654;-44
2022/07/19 06:46:10;;;;;;;6.60;3.00;;;26.10;83.90;;;;;;5030605;28;20200;-42
2022/07/19 06:48:39;;;;;;;6.72;2.70;;;26.10;84.00;;;;;;5030088;28;20236;-43
2022/07/19 06:51:07;;;;;;;5.45;2.80;;;26.10;83.90;;;;;;5033969;28;20257;-43
2022/07/19 06:53:35;;;;;;;4.85;2.50;;;26.20;84.00;;;;;;5040074;28;20201;-42
2022/07/19 06:56:07;;;;;;;6.68;2.45;;;26.30;84.10;;;;;;5030199;28;20217;-43
2022/07/19 06:58:36;;;;;;;4.95;2.50;;;26.30;84.10;;;;;;5029754;28;20746;-43
2022/07/19 07:01:09;;;;;;;9.32;2.22;;;26.40;84.20;;;;;;5059471;28;20207;-43
2022/07/19 07:03:43;;;;;;;3.85;2.50;;;26.40;84.90;;;;;;5069139;28;20228;-44
2022/07/19 07:06:13;;;;;;;5.93;2.47;;;26.50;84.40;;;;;;5068328;28;20198;-44
2022/07/19 07:08:40;;;;;;;8.95;2.47;;;26.60;84.50;;;;;;5034815;28;20205;-43
2022/07/19 07:11:10;;;;;;;7.18;2.92;;;26.60;84.50;;;;;;5041788;28;20745;-44
2022/07/19 07:13:38;;;;;;;3.53;2.08;;;26.70;84.60;;;;;;5036910;28;20262;-43
2022/07/19 07:16:06;;;;;;;6.65;2.40;;;26.80;84.70;;;;;;5048339;28;20227;-43
2022/07/19 07:18:33;;;;;;;4.03;2.25;;;26.80;84.80;;;;;;5048909;28;20265;-42
2022/07/19 07:21:01;;;;;;;5.53;2.20;;;26.90;84.80;;;;;;5049080;28;20698;-42
2022/07/19 07:23:30;;;;;;;5.18;2.42;;;27.00;85.00;;;;;;5048485;28;20310;-43
2022/07/19 07:25:58;;;;;;;4.10;2.45;;;27.00;85.00;;;;;;5049556;28;20298;-43
2022/07/19 07:28:28;;;;;;;6.38;2.30;;;27.10;85.00;;;;;;5034257;28;20691;-43
2022/07/19 07:30:58;;;;;;;3.40;2.30;;;27.20;85.00;;;;;;5038980;28;20230;-43
2022/07/19 07:33:27;;;;;;;4.35;1.95;;;27.30;85.10;;;;;;5048664;28;20274;-43
2022/07/19 07:35:58;;;;;;;4.63;2.15;;;27.40;85.10;;;;;;5049424;28;20619;-43
2022/07/19 07:38:27;;;;;;;3.03;1.80;;;27.40;85.10;;;;;;5048613;28;20450;-43
2022/07/19 07:40:56;;;;;;;6.07;2.22;;;27.50;85.90;;;;;;5047849;28;20211;-43
2022/07/19 07:43:43;;;;;;;3.50;2.00;;;27.60;85.10;;;;;;5047025;28;20754;-42
2022/07/19 07:46:10;;;;;;;3.70;2.13;;;27.70;85.10;;;;;;5028917;28;20197;-43
2022/07/19 07:48:40;;;;;;;3.00;1.77;;;27.80;85.10;;;;;;5043579;28;20208;-45
2022/07/19 07:51:07;;;;;;;6.35;1.85;;;27.90;84.90;;;;;;5048983;28;20315;-43
2022/07/19 07:53:54;;;;;;;3.13;1.70;;;28.00;85.00;;;;;;5048398;28;20302;-42
2022/07/19 07:56:22;;;;;;;5.00;2.10;;;28.10;85.00;;;;;;5049251;28;20212;-42
2022/07/19 07:58:49;;;;;;;6.15;1.73;;;28.10;85.00;;;;;;5048540;28;20279;-43
2022/07/19 08:01:19;;;;;;;3.03;1.55;;;28.20;85.00;;;;;;5053217;28;20220;-43
2022/07/19 08:03:49;;;;;;;2.42;1.70;;;28.30;85.10;;;;;;5028302;28;20741;-43
2022/07/19 08:06:18;;;;;;;3.47;1.75;;;28.30;85.20;;;;;;5028902;28;20224;-43
2022/07/19 08:08:45;;;;;;;2.67;2.00;;;28.40;85.10;;;;;;5027730;28;20628;-43
2022/07/19 08:11:13;;;;;;;3.83;1.98;;;28.50;85.10;;;;;;5028573;28;20255;-43
2022/07/19 08:13:40;;;;;;;6.00;2.20;;;28.60;84.60;;;;;;5028296;28;20211;-44
2022/07/19 08:16:07;;;;;;;5.32;2.67;;;28.70;84.60;;;;;;5028848;28;20223;-44
2022/07/19 08:18:34;;;;;;;2.40;2.10;;;28.70;84.50;;;;;;5031641;28;20230;-44
2022/07/19 08:21:06;;;;;;;4.00;2.22;;;28.80;84.20;;;;;;5035956;28;20570;-44
2022/07/19 08:23:34;;;;;;;5.57;2.13;;;28.90;84.30;;;;;;5029570;28;20241;-44
2022/07/19 08:26:01;;;;;;;3.35;2.13;;;28.90;83.90;;;;;;5048350;28;20227;-44
2022/07/19 08:28:31;;;;;;;4.00;1.98;;;29.00;83.90;;;;;;5048539;28;20212;-44
2022/07/19 08:31:00;;;;;;;2.67;2.03;;;29.10;84.00;;;;;;5048541;28;20208;-44
2022/07/19 08:33:38;;;;;;;4.35;2.03;;;29.10;83.90;;;;;;5046615;28;20204;-44
2022/07/19 08:36:07;;;;;;;2.95;1.92;;;29.30;84.30;;;;;;5035188;28;20224;-44
2022/07/19 08:38:36;;;;;;;2.60;1.98;;;29.30;83.90;;;;;;5032814;28;20223;-43
2022/07/19 08:41:04;;;;;;;3.85;2.42;;;29.40;83.90;;;;;;5048265;28;20211;-44
2022/07/19 08:43:32;;;;;;;3.08;2.13;;;29.50;84.20;;;;;;5047769;28;20657;-44
2022/07/19 08:46:01;;;;;;;3.63;1.80;;;29.60;83.80;;;;;;5048188;28;20606;-44
2022/07/19 08:48:34;;;;;;;2.30;1.88;;;29.70;84.10;;;;;;5045972;28;20606;-44
2022/07/19 08:51:12;;;;;;;3.95;1.88;;;29.80;84.00;;;;;;5048272;28;20205;-46
2022/07/19 08:53:40;;;;;;;3.22;2.13;;;29.90;84.00;;;;;;5030891;28;20621;-44
2022/07/19 08:58:54;;;;;;;3.22;2.17;;;30.00;83.80;;;;;;5047969;28;20722;-46
2022/07/19 09:01:22;;;;;;;4.15;2.15;;;30.10;83.10;;;;;;5064829;28;20210;-46
2022/07/19 09:04:16;;;;;;;3.85;2.05;;;30.20;84.20;;;;;;5067757;28;20783;-46
2022/07/19 09:06:51;;;;;;;2.53;1.70;;;30.30;83.60;;;;;;5066667;28;20661;-45
2022/07/19 09:09:27;;;;;;;6.25;2.10;;;30.40;84.20;;;;;;5028001;28;20200;-46
2022/07/19 09:11:56;;;;;;;5.60;1.80;;;30.50;83.80;;;;;;5028989;28;20219;-45
2022/07/19 09:14:26;;;;;;;3.20;1.98;;;30.60;83.10;;;;;;5046491;28;20196;-46
2022/07/19 09:17:01;;;;;;;3.75;2.00;;;30.60;83.00;;;;;;5048100;28;20235;-46
2022/07/19 09:19:33;;;;;;;7.05;2.30;;;30.70;82.90;;;;;;5047791;28;20217;-46
2022/07/19 09:22:06;;;;;;;3.95;2.15;;;30.80;82.80;;;;;;5048158;28;20618;-46
2022/07/19 09:24:38;;;;;;;3.72;2.13;;;30.90;83.20;;;;;;5040238;28;20312;-46
2022/07/19 09:27:14;;;;;;;6.68;2.28;;;31.00;83.30;;;;;;5029490;28;20220;-46
2022/07/19 09:29:43;;;;;;;7.65;2.15;;;31.00;83.10;;;;;;5034983;28;20203;-47
2022/07/19 09:32:14;;;;;;;5.68;2.00;;;31.10;82.70;;;;;;5050835;28;20196;-45
2022/07/19 09:34:59;;;;;;;2.42;1.90;;;31.20;82.60;;;;;;5051495;28;20211;-44
2022/07/19 09:37:28;;;;;;;4.97;2.65;;;31.30;82.90;;;;;;5051299;28;20303;-47
2022/07/19 09:40:04;;;;;;;3.38;2.00;;;31.40;82.80;;;;;;5049821;28;20218;-44
2022/07/19 09:42:43;;;;;;;4.65;2.58;;;31.40;82.40;;;;;;5051355;28;20206;-47
2022/07/19 09:45:13;;;;;;;6.80;2.53;;;31.50;82.60;;;;;;5049981;28;20247;-47
2022/07/19 09:47:45;;;;;;;4.70;2.03;;;31.60;82.40;;;;;;5035314;28;20300;-47
2022/07/19 09:50:18;;;;;;;3.90;2.00;;;31.70;81.60;;;;;;5031630;28;20610;-47
2022/07/19 09:52:47;;;;;;;3.53;2.13;;;31.80;82.00;;;;;;5031341;28;20630;-50
2022/07/19 09:55:17;;;;;;;3.75;2.33;;;31.80;82.00;;;;;;5043699;28;20325;-44
2022/07/19 09:57:49;;;;;;;5.32;2.10;;;31.90;82.50;;;;;;5049866;28;20231;-47
2022/07/19 10:00:24;;;;;;;5.72;1.92;;;32.00;82.40;;;;;;5046296;28;20290;-47
2022/07/19 10:02:56;;;;;;;4.25;2.17;;;32.00;82.10;;;;;;5031646;28;20243;-47
2022/07/19 10:05:29;;;;;;;3.22;2.15;;;32.10;81.60;;;;;;5051349;28;20223;-46
2022/07/19 10:08:00;;;;;;;4.32;2.45;;;32.20;81.90;;;;;;5050221;28;20199;-46
2022/07/19 10:10:30;;;;;;;3.80;2.03;;;32.30;81.00;;;;;;5049658;28;20968;-47
2022/07/19 10:13:03;;;;;;;7.43;2.33;;;32.40;81.70;;;;;;5051055;28;20293;-46
2022/07/19 10:15:35;;;;;;;4.25;1.85;;;32.40;80.90;;;;;;5049965;28;20209;-46
2022/07/19 10:18:16;;;;;;;5.07;2.20;;;32.50;80.40;;;;;;5049690;28;20277;-45
2022/07/19 10:20:51;;;;;;;7.30;2.35;;;32.60;81.10;;;;;;5042166;28;20217;-46
2022/07/19 10:23:31;;;;;;;9.65;2.40;;;32.70;81.00;;;;;;5030301;28;20297;-45
2022/07/19 10:26:01;;;;;;;2.50;1.92;;;32.70;79.70;;;;;;5030695;28;20251;-45
2022/07/19 10:28:37;;;;;;;5.13;2.15;;;32.80;79.30;;;;;;5030343;28;20215;-46
2022/07/19 10:31:31;;;;;;;6.50;2.08;;;32.90;79.50;;;;;;5041353;28;20196;-46
2022/07/19 10:34:06;;;;;;;8.45;2.63;;;32.90;79.00;;;;;;5029311;28;20215;-45
2022/07/19 10:36:34;;;;;;;6.93;2.10;;;33.00;78.60;;;;;;5030805;28;20679;-45
2022/07/19 10:39:37;;;;;;;3.58;1.88;;;33.10;78.80;;;;;;5048194;28;20323;-46
2022/07/19 10:42:14;;;;;;;6.47;2.70;;;33.20;80.20;;;;;;5049177;28;20724;-46
2022/07/19 10:45:05;;;;;;;2.78;2.03;;;33.30;78.70;;;;;;5050050;28;20270;-46
2022/07/19 10:47:34;;;;;;;1.83;1.70;;;33.30;79.70;;;;;;5049951;28;20273;-46
2022/07/19 10:50:08;;;;;;;5.78;2.10;;;33.40;79.50;;;;;;5050270;28;20629;-47
2022/07/19 10:52:39;;;;;;;4.25;1.85;;;33.50;78.70;;;;;;5049269;28;20226;-46
2022/07/19 10:55:18;;;;;;;5.57;2.13;;;33.60;78.70;;;;;;5038472;28;20217;-46
2022/07/19 10:57:51;;;;;;;3.65;1.75;;;33.60;79.10;;;;;;5028266;28;20205;-46
2022/07/19 11:00:27;;;;;;;2.58;1.98;;;33.70;78.60;;;;;;5030159;28;20205;-46
2022/07/19 11:03:30;;;;;;;3.90;1.67;;;33.70;78.40;;;;;;5029962;28;20192;-46
2022/07/19 11:06:02;;;;;;;8.38;2.47;;;33.80;79.50;;;;;;5027215;28;20216;-46
2022/07/19 11:08:37;;;;;;;5.45;2.00;;;33.90;78.40;;;;;;5035946;28;20212;-46
2022/07/19 11:11:11;;;;;;;3.70;2.20;;;34.00;78.30;;;;;;5037983;28;20212;-46
2022/07/19 11:13:45;;;;;;;4.90;2.03;;;34.00;78.00;;;;;;5028433;28;20201;-46
2022/07/19 11:16:13;;;;;;;2.70;1.98;;;34.10;78.20;;;;;;5029548;28;20775;-47
2022/07/19 11:18:43;;;;;;;2.25;1.88;;;34.10;78.40;;;;;;5029294;28;20197;-46
2022/07/19 11:21:14;;;;;;;8.50;2.47;;;34.20;78.50;;;;;;5028486;28;20610;-46
2022/07/19 11:23:47;;;;;;;4.25;2.00;;;34.30;77.80;;;;;;5029175;28;20292;-46
2022/07/19 11:26:18;;;;;;;7.50;2.55;;;34.40;78.30;;;;;;5029778;28;20470;-46
2022/07/19 11:28:48;;;;;;;4.72;2.00;;;34.40;78.00;;;;;;5029936;28;20222;-46
2022/07/19 11:31:26;;;;;;;2.13;1.92;;;34.50;78.20;;;;;;5029789;28;20212;-47
2022/07/19 11:33:57;;;;;;;4.30;1.90;;;34.50;77.90;;;;;;5028957;28;20200;-46
2022/07/19 11:36:26;;;;;;;4.45;2.10;;;34.60;77.70;;;;;;5030083;28;20605;-47
2022/07/19 11:38:58;;;;;;;3.45;1.90;;;34.70;77.70;;;;;;5017401;28;20208;-47
2022/07/19 11:41:31;;;;;;;2.42;2.00;;;34.70;77.50;;;;;;5048058;28;20601;-46
2022/07/19 11:44:01;;;;;;;3.50;1.95;;;34.80;77.70;;;;;;5029586;28;20208;-46
2022/07/19 11:46:41;;;;;;;2.80;1.90;;;34.80;76.70;;;;;;5028381;28;20205;-47
2022/07/19 11:49:10;;;;;;;6.05;2.40;;;34.90;77.70;;;;;;5028551;28;20631;-46
2022/07/19 11:51:37;;;;;;;3.35;2.28;;;34.90;76.50;;;;;;5029656;28;20236;-47
2022/07/19 11:54:13;;;;;;;3.38;2.40;;;35.00;76.60;;;;;;5031650;28;20281;-46
2022/07/19 11:56:44;;;;;;;6.75;2.10;;;35.00;77.00;;;;;;5049133;28;20216;-45
2022/07/19 11:59:12;;;;;;;4.05;2.42;;;35.10;76.70;;;;;;5047888;28;20291;-46
2022/07/19 12:01:44;;;;;;;3.72;2.40;;;35.10;75.30;;;;;;5068440;28;20579;-47
2022/07/19 12:04:13;;;;;;;5.53;2.30;;;35.20;76.60;;;;;;5046184;28;20686;-46
2022/07/19 12:06:46;;;;;;;10.07;2.30;;;35.20;75.90;;;;;;5047373;28;20560;-47
2022/07/19 12:09:27;;;;;;;5.57;2.67;;;35.30;76.10;;;;;;5048487;28;20193;-47
2022/07/19 12:11:56;;;;;;;4.63;2.15;;;35.30;76.20;;;;;;5048710;28;20265;-47
2022/07/19 12:14:34;;;;;;;7.05;2.30;;;35.40;76.60;;;;;;5048584;28;20244;-46
2022/07/19 12:17:16;;;;;;;6.25;2.42;;;35.40;76.70;;;;;;5047756;28;20242;-47
2022/07/19 12:19:48;;;;;;;4.13;2.05;;;35.50;76.10;;;;;;5040799;28;20220;-46
2022/07/19 12:22:31;;;;;;;2.85;2.10;;;35.50;76.60;;;;;;5027144;28;20238;-47
2022/07/19 12:25:01;;;;;;;5.90;2.28;;;35.60;76.50;;;;;;5030632;28;20211;-46
2022/07/19 12:27:29;;;;;;;3.40;1.90;;;35.60;76.20;;;;;;5046963;28;20233;-46
2022/07/19 12:30:01;;;;;;;3.92;2.58;;;35.70;76.20;;;;;;5048562;28;20232;-46
2022/07/19 12:32:45;;;;;;;2.80;2.40;;;35.80;76.50;;;;;;5046540;28;20246;-46
2022/07/19 12:35:14;;;;;;;3.05;2.25;;;35.80;75.90;;;;;;5028733;28;20651;-45
2022/07/19 12:37:46;;;;;;;5.63;2.60;;;35.90;75.30;;;;;;5028682;28;20231;-46
2022/07/19 12:40:21;;;;;;;3.72;2.20;;;36.00;75.00;;;;;;5028051;28;20292;-46
2022/07/19 12:43:02;;;;;;;3.20;2.40;;;36.00;75.90;;;;;;5028466;28;20212;-45
2022/07/19 12:45:36;;;;;;;2.08;1.88;;;36.10;75.90;;;;;;5028446;28;20662;-45
2022/07/19 12:48:04;;;;;;;3.53;2.22;;;36.10;75.80;;;;;;5026217;28;20699;-45
2022/07/19 12:50:37;;;;;;;3.58;1.95;;;36.10;75.30;;;;;;5040002;28;20234;-45
2022/07/19 12:53:08;;;;;;;3.95;2.25;;;36.20;75.60;;;;;;5045173;28;20208;-46
2022/07/19 12:55:45;;;;;;;5.78;2.20;;;36.20;75.60;;;;;;5040586;28;20238;-46
2022/07/19 13:01:03;;;;;;;4.43;2.40;;;36.30;75.50;;;;;;5060368;28;20223;-46
2022/07/19 13:03:30;;;;;;;5.53;2.20;;;36.40;74.90;;;;;;5026271;28;20262;-46
2022/07/19 13:06:00;;;;;;;6.25;2.70;;;36.40;74.30;;;;;;5030036;28;20762;-48
2022/07/19 13:08:29;;;;;;;3.38;2.30;;;36.40;74.20;;;;;;5035519;28;20758;-46